sensor_id;sensor_type;location;lat;lon;timestamp;P1;durP1;ratioP1;P2;durP2;ratioP2
60344;SDS011;46188;52.324;8.032;2023-07-31T00:00:48;8.82;;;6.43;;
60344;SDS011;46188;52.324;8.032;2023-07-31T00:03:13;7.10;;;6.10;;
60344;SDS011;46188;52.324;8.032;2023-07-31T00:05:39;6.82;;;6.03;;
60344;SDS011;46188;52.324;8.032;2023-07-31T00:08:04;6.63;;;5.82;;
60344;SDS011;46188;52.324;8.032;2023-07-31T00:10:29;6.85;;;6.20;;
60344;SDS011;46188;52.324;8.032;2023-07-31T00:12:54;6.68;;;5.53;;
60344;SDS011;46188;52.324;8.032;2023-07-31T00:15:20;7.60;;;5.78;;
60344;SDS011;46188;52.324;8.032;2023-07-31T00:17:45;8.43;;;6.20;;
60344;SDS011;46188;52.324;8.032;2023-07-31T00:20:10;6.68;;;6.03;;
60344;SDS011;46188;52.324;8.032;2023-07-31T00:22:36;7.40;;;6.03;;
60344;SDS011;46188;52.324;8.032;2023-07-31T00:25:01;7.50;;;6.03;;
60344;SDS011;46188;52.324;8.032;2023-07-31T00:27:26;6.75;;;6.13;;
60344;SDS011;46188;52.324;8.032;2023-07-31T00:29:52;7.15;;;6.43;;
60344;SDS011;46188;52.324;8.032;2023-07-31T00:32:17;7.55;;;6.47;;
60344;SDS011;46188;52.324;8.032;2023-07-31T00:34:42;7.13;;;6.35;;
60344;SDS011;46188;52.324;8.032;2023-07-31T00:37:07;6.28;;;5.47;;
60344;SDS011;46188;52.324;8.032;2023-07-31T00:39:33;8.73;;;5.95;;
60344;SDS011;46188;52.324;8.032;2023-07-31T00:41:59;6.18;;;5.10;;
60344;SDS011;46188;52.324;8.032;2023-07-31T00:44:24;9.10;;;6.40;;
60344;SDS011;46188;52.324;8.032;2023-07-31T00:46:49;6.18;;;5.57;;
60344;SDS011;46188;52.324;8.032;2023-07-31T00:49:15;8.00;;;6.15;;
60344;SDS011;46188;52.324;8.032;2023-07-31T00:51:41;6.45;;;5.85;;
60344;SDS011;46188;52.324;8.032;2023-07-31T00:54:06;6.00;;;5.45;;
60344;SDS011;46188;52.324;8.032;2023-07-31T00:56:31;6.03;;;5.50;;
60344;SDS011;46188;52.324;8.032;2023-07-31T00:58:57;7.00;;;6.30;;
60344;SDS011;46188;52.324;8.032;2023-07-31T01:01:22;6.97;;;6.15;;
60344;SDS011;46188;52.324;8.032;2023-07-31T01:03:48;7.35;;;5.93;;
60344;SDS011;46188;52.324;8.032;2023-07-31T01:06:22;7.05;;;5.28;;
60344;SDS011;46188;52.324;8.032;2023-07-31T01:11:53;6.60;;;6.00;;
60344;SDS011;46188;52.324;8.032;2023-07-31T01:14:22;6.78;;;6.05;;
60344;SDS011;46188;52.324;8.032;2023-07-31T01:16:47;7.30;;;6.00;;
60344;SDS011;46188;52.324;8.032;2023-07-31T01:19:14;7.00;;;6.28;;
60344;SDS011;46188;52.324;8.032;2023-07-31T01:27:21;7.03;;;5.72;;
60344;SDS011;46188;52.324;8.032;2023-07-31T01:29:53;6.90;;;6.07;;
60344;SDS011;46188;52.324;8.032;2023-07-31T01:32:23;6.57;;;5.90;;
60344;SDS011;46188;52.324;8.032;2023-07-31T01:34:53;7.00;;;5.38;;
60344;SDS011;46188;52.324;8.032;2023-07-31T01:37:19;6.55;;;5.95;;
60344;SDS011;46188;52.324;8.032;2023-07-31T01:39:44;6.13;;;5.53;;
60344;SDS011;46188;52.324;8.032;2023-07-31T01:42:09;5.68;;;5.07;;
60344;SDS011;46188;52.324;8.032;2023-07-31T01:44:34;5.63;;;4.90;;
60344;SDS011;46188;52.324;8.032;2023-07-31T01:47:00;5.18;;;4.68;;
60344;SDS011;46188;52.324;8.032;2023-07-31T01:49:25;5.97;;;4.63;;
60344;SDS011;46188;52.324;8.032;2023-07-31T01:51:51;4.75;;;4.35;;
60344;SDS011;46188;52.324;8.032;2023-07-31T01:54:16;5.00;;;4.47;;
60344;SDS011;46188;52.324;8.032;2023-07-31T01:56:41;4.82;;;4.28;;
60344;SDS011;46188;52.324;8.032;2023-07-31T01:59:06;4.32;;;3.92;;
60344;SDS011;46188;52.324;8.032;2023-07-31T02:01:32;4.38;;;3.47;;
60344;SDS011;46188;52.324;8.032;2023-07-31T02:03:57;3.50;;;3.20;;
60344;SDS011;46188;52.324;8.032;2023-07-31T02:06:22;3.92;;;3.03;;
60344;SDS011;46188;52.324;8.032;2023-07-31T02:08:48;5.03;;;2.85;;
60344;SDS011;46188;52.324;8.032;2023-07-31T02:11:14;5.13;;;3.08;;
60344;SDS011;46188;52.324;8.032;2023-07-31T02:13:39;3.95;;;3.10;;
60344;SDS011;46188;52.324;8.032;2023-07-31T02:16:04;3.70;;;2.80;;
60344;SDS011;46188;52.324;8.032;2023-07-31T02:18:29;2.85;;;2.55;;
60344;SDS011;46188;52.324;8.032;2023-07-31T02:20:55;3.33;;;3.03;;
60344;SDS011;46188;52.324;8.032;2023-07-31T02:23:20;3.80;;;2.75;;
60344;SDS011;46188;52.324;8.032;2023-07-31T02:25:45;3.20;;;2.53;;
60344;SDS011;46188;52.324;8.032;2023-07-31T02:28:11;2.63;;;2.33;;
60344;SDS011;46188;52.324;8.032;2023-07-31T02:30:36;3.75;;;2.08;;
60344;SDS011;46188;52.324;8.032;2023-07-31T02:33:02;3.00;;;2.13;;
60344;SDS011;46188;52.324;8.032;2023-07-31T02:35:27;2.20;;;2.00;;
60344;SDS011;46188;52.324;8.032;2023-07-31T02:37:53;2.10;;;1.90;;
60344;SDS011;46188;52.324;8.032;2023-07-31T02:40:18;2.90;;;1.92;;
60344;SDS011;46188;52.324;8.032;2023-07-31T02:42:43;3.55;;;1.63;;
60344;SDS011;46188;52.324;8.032;2023-07-31T02:45:09;1.80;;;1.48;;
60344;SDS011;46188;52.324;8.032;2023-07-31T02:47:34;2.38;;;1.50;;
60344;SDS011;46188;52.324;8.032;2023-07-31T02:50:00;2.50;;;1.60;;
60344;SDS011;46188;52.324;8.032;2023-07-31T02:52:25;3.58;;;2.13;;
60344;SDS011;46188;52.324;8.032;2023-07-31T02:54:51;1.90;;;1.45;;
60344;SDS011;46188;52.324;8.032;2023-07-31T02:57:17;2.33;;;1.40;;
60344;SDS011;46188;52.324;8.032;2023-07-31T02:59:42;5.93;;;1.38;;
60344;SDS011;46188;52.324;8.032;2023-07-31T03:02:07;3.00;;;1.40;;
60344;SDS011;46188;52.324;8.032;2023-07-31T03:04:33;3.25;;;1.48;;
60344;SDS011;46188;52.324;8.032;2023-07-31T03:06:58;2.35;;;1.30;;
60344;SDS011;46188;52.324;8.032;2023-07-31T03:09:23;2.22;;;1.20;;
60344;SDS011;46188;52.324;8.032;2023-07-31T03:11:48;1.75;;;1.30;;
60344;SDS011;46188;52.324;8.032;2023-07-31T03:14:14;1.60;;;1.10;;
60344;SDS011;46188;52.324;8.032;2023-07-31T03:16:39;2.25;;;1.20;;
60344;SDS011;46188;52.324;8.032;2023-07-31T03:19:04;1.75;;;1.20;;
60344;SDS011;46188;52.324;8.032;2023-07-31T03:21:29;1.75;;;1.20;;
60344;SDS011;46188;52.324;8.032;2023-07-31T03:23:55;1.50;;;1.25;;
60344;SDS011;46188;52.324;8.032;2023-07-31T03:26:20;1.30;;;1.08;;
60344;SDS011;46188;52.324;8.032;2023-07-31T03:28:45;3.03;;;1.20;;
60344;SDS011;46188;52.324;8.032;2023-07-31T03:31:10;2.20;;;1.20;;
60344;SDS011;46188;52.324;8.032;2023-07-31T03:33:36;3.75;;;1.30;;
60344;SDS011;46188;52.324;8.032;2023-07-31T03:36:01;2.20;;;1.23;;
60344;SDS011;46188;52.324;8.032;2023-07-31T03:38:27;1.70;;;1.20;;
60344;SDS011;46188;52.324;8.032;2023-07-31T03:40:52;1.20;;;1.00;;
60344;SDS011;46188;52.324;8.032;2023-07-31T03:43:17;1.50;;;1.30;;
60344;SDS011;46188;52.324;8.032;2023-07-31T03:45:43;1.50;;;1.30;;
60344;SDS011;46188;52.324;8.032;2023-07-31T03:48:08;1.65;;;1.33;;
60344;SDS011;46188;52.324;8.032;2023-07-31T03:50:33;4.13;;;2.45;;
60344;SDS011;46188;52.324;8.032;2023-07-31T03:52:59;6.72;;;2.63;;
60344;SDS011;46188;52.324;8.032;2023-07-31T03:55:24;4.00;;;2.28;;
60344;SDS011;46188;52.324;8.032;2023-07-31T03:57:49;4.05;;;3.17;;
60344;SDS011;46188;52.324;8.032;2023-07-31T04:00:15;6.63;;;3.42;;
60344;SDS011;46188;52.324;8.032;2023-07-31T04:02:40;7.85;;;4.70;;
60344;SDS011;46188;52.324;8.032;2023-07-31T04:05:05;12.30;;;5.80;;
60344;SDS011;46188;52.324;8.032;2023-07-31T04:07:31;12.85;;;6.03;;
60344;SDS011;46188;52.324;8.032;2023-07-31T04:09:57;14.98;;;6.15;;
60344;SDS011;46188;52.324;8.032;2023-07-31T04:12:22;14.23;;;6.90;;
60344;SDS011;46188;52.324;8.032;2023-07-31T04:14:48;17.98;;;7.63;;
60344;SDS011;46188;52.324;8.032;2023-07-31T04:17:13;15.15;;;8.23;;
60344;SDS011;46188;52.324;8.032;2023-07-31T04:19:38;13.93;;;6.70;;
60344;SDS011;46188;52.324;8.032;2023-07-31T04:22:04;17.40;;;8.30;;
60344;SDS011;46188;52.324;8.032;2023-07-31T04:24:29;16.42;;;7.82;;
60344;SDS011;46188;52.324;8.032;2023-07-31T04:26:54;15.30;;;7.82;;
60344;SDS011;46188;52.324;8.032;2023-07-31T04:29:19;14.57;;;7.57;;
60344;SDS011;46188;52.324;8.032;2023-07-31T04:31:45;14.95;;;8.13;;
60344;SDS011;46188;52.324;8.032;2023-07-31T04:34:10;18.73;;;8.13;;
60344;SDS011;46188;52.324;8.032;2023-07-31T04:36:36;15.85;;;7.60;;
60344;SDS011;46188;52.324;8.032;2023-07-31T04:39:02;16.98;;;6.47;;
60344;SDS011;46188;52.324;8.032;2023-07-31T04:41:27;13.18;;;6.97;;
60344;SDS011;46188;52.324;8.032;2023-07-31T04:43:53;12.23;;;6.55;;
60344;SDS011;46188;52.324;8.032;2023-07-31T04:46:18;12.48;;;6.75;;
60344;SDS011;46188;52.324;8.032;2023-07-31T04:48:43;13.15;;;6.35;;
60344;SDS011;46188;52.324;8.032;2023-07-31T04:51:08;13.23;;;6.13;;
60344;SDS011;46188;52.324;8.032;2023-07-31T04:53:37;11.40;;;5.15;;
60344;SDS011;46188;52.324;8.032;2023-07-31T04:56:02;10.68;;;5.53;;
60344;SDS011;46188;52.324;8.032;2023-07-31T04:58:28;11.60;;;4.88;;
60344;SDS011;46188;52.324;8.032;2023-07-31T05:00:53;10.77;;;5.70;;
60344;SDS011;46188;52.324;8.032;2023-07-31T05:03:18;8.73;;;5.72;;
60344;SDS011;46188;52.324;8.032;2023-07-31T05:05:43;10.30;;;6.05;;
60344;SDS011;46188;52.324;8.032;2023-07-31T05:08:09;9.68;;;5.65;;
60344;SDS011;46188;52.324;8.032;2023-07-31T05:10:34;15.35;;;6.80;;
60344;SDS011;46188;52.324;8.032;2023-07-31T05:12:59;11.32;;;5.85;;
60344;SDS011;46188;52.324;8.032;2023-07-31T05:15:24;11.57;;;6.10;;
60344;SDS011;46188;52.324;8.032;2023-07-31T05:17:50;11.38;;;6.38;;
60344;SDS011;46188;52.324;8.032;2023-07-31T05:20:15;20.85;;;7.82;;
60344;SDS011;46188;52.324;8.032;2023-07-31T05:22:40;17.10;;;6.68;;
60344;SDS011;46188;52.324;8.032;2023-07-31T05:25:06;12.93;;;7.07;;
60344;SDS011;46188;52.324;8.032;2023-07-31T05:27:31;15.18;;;7.75;;
60344;SDS011;46188;52.324;8.032;2023-07-31T05:29:57;18.90;;;7.38;;
60344;SDS011;46188;52.324;8.032;2023-07-31T05:32:22;13.00;;;7.13;;
60344;SDS011;46188;52.324;8.032;2023-07-31T05:34:50;20.17;;;7.30;;
60344;SDS011;46188;52.324;8.032;2023-07-31T05:37:16;15.65;;;7.13;;
60344;SDS011;46188;52.324;8.032;2023-07-31T05:39:41;19.25;;;8.20;;
60344;SDS011;46188;52.324;8.032;2023-07-31T05:42:06;16.80;;;7.15;;
60344;SDS011;46188;52.324;8.032;2023-07-31T05:44:32;21.33;;;8.10;;
60344;SDS011;46188;52.324;8.032;2023-07-31T05:46:57;20.38;;;7.63;;
60344;SDS011;46188;52.324;8.032;2023-07-31T05:49:22;16.25;;;7.00;;
60344;SDS011;46188;52.324;8.032;2023-07-31T05:51:47;20.45;;;8.02;;
60344;SDS011;46188;52.324;8.032;2023-07-31T05:54:13;12.43;;;6.75;;
60344;SDS011;46188;52.324;8.032;2023-07-31T05:56:38;19.88;;;7.03;;
60344;SDS011;46188;52.324;8.032;2023-07-31T05:59:03;13.40;;;6.28;;
60344;SDS011;46188;52.324;8.032;2023-07-31T06:01:29;14.18;;;7.25;;
60344;SDS011;46188;52.324;8.032;2023-07-31T06:03:55;13.18;;;6.88;;
60344;SDS011;46188;52.324;8.032;2023-07-31T06:06:20;21.02;;;7.55;;
60344;SDS011;46188;52.324;8.032;2023-07-31T06:08:45;17.10;;;7.10;;
60344;SDS011;46188;52.324;8.032;2023-07-31T06:11:11;18.42;;;7.47;;
60344;SDS011;46188;52.324;8.032;2023-07-31T06:13:36;19.33;;;6.72;;
60344;SDS011;46188;52.324;8.032;2023-07-31T06:16:01;16.80;;;6.22;;
60344;SDS011;46188;52.324;8.032;2023-07-31T06:18:30;20.05;;;7.68;;
60344;SDS011;46188;52.324;8.032;2023-07-31T06:20:56;17.58;;;6.50;;
60344;SDS011;46188;52.324;8.032;2023-07-31T06:23:21;15.27;;;5.88;;
60344;SDS011;46188;52.324;8.032;2023-07-31T06:25:47;16.58;;;6.38;;
60344;SDS011;46188;52.324;8.032;2023-07-31T06:28:12;17.23;;;6.72;;
60344;SDS011;46188;52.324;8.032;2023-07-31T06:30:37;17.02;;;7.40;;
60344;SDS011;46188;52.324;8.032;2023-07-31T06:33:02;16.77;;;6.32;;
60344;SDS011;46188;52.324;8.032;2023-07-31T06:35:28;17.75;;;7.80;;
60344;SDS011;46188;52.324;8.032;2023-07-31T06:37:53;22.60;;;6.95;;
60344;SDS011;46188;52.324;8.032;2023-07-31T06:40:18;15.63;;;5.82;;
60344;SDS011;46188;52.324;8.032;2023-07-31T06:42:44;20.00;;;6.35;;
60344;SDS011;46188;52.324;8.032;2023-07-31T06:45:09;15.32;;;5.70;;
60344;SDS011;46188;52.324;8.032;2023-07-31T06:47:35;12.38;;;6.05;;
60344;SDS011;46188;52.324;8.032;2023-07-31T06:50:00;14.23;;;5.82;;
60344;SDS011;46188;52.324;8.032;2023-07-31T06:52:25;15.80;;;6.07;;
60344;SDS011;46188;52.324;8.032;2023-07-31T06:55:04;13.25;;;5.75;;
60344;SDS011;46188;52.324;8.032;2023-07-31T06:57:44;12.93;;;6.50;;
60344;SDS011;46188;52.324;8.032;2023-07-31T07:00:09;13.45;;;6.50;;
60344;SDS011;46188;52.324;8.032;2023-07-31T07:02:35;17.08;;;6.55;;
60344;SDS011;46188;52.324;8.032;2023-07-31T07:05:00;17.05;;;6.72;;
60344;SDS011;46188;52.324;8.032;2023-07-31T07:07:26;16.35;;;7.20;;
60344;SDS011;46188;52.324;8.032;2023-07-31T07:09:51;17.58;;;6.60;;
60344;SDS011;46188;52.324;8.032;2023-07-31T07:12:16;19.88;;;6.80;;
60344;SDS011;46188;52.324;8.032;2023-07-31T07:14:41;14.82;;;6.35;;
60344;SDS011;46188;52.324;8.032;2023-07-31T07:17:07;12.70;;;5.97;;
60344;SDS011;46188;52.324;8.032;2023-07-31T07:19:32;16.38;;;5.80;;
60344;SDS011;46188;52.324;8.032;2023-07-31T07:21:57;16.63;;;5.88;;
60344;SDS011;46188;52.324;8.032;2023-07-31T07:24:24;19.50;;;6.75;;
60344;SDS011;46188;52.324;8.032;2023-07-31T07:26:50;16.65;;;5.90;;
60344;SDS011;46188;52.324;8.032;2023-07-31T07:29:15;13.20;;;6.07;;
60344;SDS011;46188;52.324;8.032;2023-07-31T07:31:40;13.63;;;6.10;;
60344;SDS011;46188;52.324;8.032;2023-07-31T07:34:05;15.68;;;6.13;;
60344;SDS011;46188;52.324;8.032;2023-07-31T07:36:31;15.50;;;6.75;;
60344;SDS011;46188;52.324;8.032;2023-07-31T07:38:57;17.67;;;6.65;;
60344;SDS011;46188;52.324;8.032;2023-07-31T07:41:22;13.05;;;6.18;;
60344;SDS011;46188;52.324;8.032;2023-07-31T07:43:48;14.23;;;6.28;;
60344;SDS011;46188;52.324;8.032;2023-07-31T07:46:13;13.88;;;6.10;;
60344;SDS011;46188;52.324;8.032;2023-07-31T07:48:38;13.50;;;5.95;;
60344;SDS011;46188;52.324;8.032;2023-07-31T07:51:03;16.67;;;5.85;;
60344;SDS011;46188;52.324;8.032;2023-07-31T07:53:29;19.10;;;5.75;;
60344;SDS011;46188;52.324;8.032;2023-07-31T07:55:54;11.48;;;5.93;;
60344;SDS011;46188;52.324;8.032;2023-07-31T07:58:19;12.93;;;4.80;;
60344;SDS011;46188;52.324;8.032;2023-07-31T08:00:51;14.95;;;5.10;;
60344;SDS011;46188;52.324;8.032;2023-07-31T08:03:17;10.65;;;5.43;;
60344;SDS011;46188;52.324;8.032;2023-07-31T08:05:43;16.73;;;5.68;;
60344;SDS011;46188;52.324;8.032;2023-07-31T08:08:08;15.00;;;5.22;;
60344;SDS011;46188;52.324;8.032;2023-07-31T08:10:34;12.10;;;4.70;;
60344;SDS011;46188;52.324;8.032;2023-07-31T08:12:59;13.35;;;6.25;;
60344;SDS011;46188;52.324;8.032;2023-07-31T08:15:24;10.55;;;4.68;;
60344;SDS011;46188;52.324;8.032;2023-07-31T08:17:50;8.60;;;4.70;;
60344;SDS011;46188;52.324;8.032;2023-07-31T08:20:15;10.88;;;4.20;;
60344;SDS011;46188;52.324;8.032;2023-07-31T08:22:40;10.05;;;5.10;;
60344;SDS011;46188;52.324;8.032;2023-07-31T08:25:05;7.85;;;3.75;;
60344;SDS011;46188;52.324;8.032;2023-07-31T08:27:32;7.43;;;4.00;;
60344;SDS011;46188;52.324;8.032;2023-07-31T08:29:57;8.10;;;4.10;;
60344;SDS011;46188;52.324;8.032;2023-07-31T08:32:22;8.82;;;3.55;;
60344;SDS011;46188;52.324;8.032;2023-07-31T08:34:47;7.25;;;4.13;;
60344;SDS011;46188;52.324;8.032;2023-07-31T08:37:14;10.88;;;5.15;;
60344;SDS011;46188;52.324;8.032;2023-07-31T08:39:39;6.00;;;3.50;;
60344;SDS011;46188;52.324;8.032;2023-07-31T08:42:07;9.80;;;3.40;;
60344;SDS011;46188;52.324;8.032;2023-07-31T08:44:34;6.13;;;3.28;;
60344;SDS011;46188;52.324;8.032;2023-07-31T08:47:00;6.63;;;3.03;;
60344;SDS011;46188;52.324;8.032;2023-07-31T08:49:26;5.50;;;2.85;;
60344;SDS011;46188;52.324;8.032;2023-07-31T08:51:52;3.97;;;2.78;;
60344;SDS011;46188;52.324;8.032;2023-07-31T08:54:20;6.97;;;2.53;;
60344;SDS011;46188;52.324;8.032;2023-07-31T08:56:45;4.40;;;2.70;;
60344;SDS011;46188;52.324;8.032;2023-07-31T08:59:11;5.53;;;2.92;;
60344;SDS011;46188;52.324;8.032;2023-07-31T09:01:40;4.85;;;2.28;;
60344;SDS011;46188;52.324;8.032;2023-07-31T09:04:10;6.03;;;2.70;;
60344;SDS011;46188;52.324;8.032;2023-07-31T09:06:38;3.35;;;2.58;;
60344;SDS011;46188;52.324;8.032;2023-07-31T09:09:04;4.57;;;2.95;;
60344;SDS011;46188;52.324;8.032;2023-07-31T09:11:29;5.85;;;3.22;;
60344;SDS011;46188;52.324;8.032;2023-07-31T09:13:56;5.78;;;3.40;;
60344;SDS011;46188;52.324;8.032;2023-07-31T09:16:28;5.72;;;3.28;;
60344;SDS011;46188;52.324;8.032;2023-07-31T09:18:57;6.10;;;3.45;;
60344;SDS011;46188;52.324;8.032;2023-07-31T09:21:23;3.35;;;3.00;;
60344;SDS011;46188;52.324;8.032;2023-07-31T09:23:50;4.45;;;2.90;;
60344;SDS011;46188;52.324;8.032;2023-07-31T09:26:31;4.40;;;2.72;;
60344;SDS011;46188;52.324;8.032;2023-07-31T09:28:59;7.13;;;3.15;;
60344;SDS011;46188;52.324;8.032;2023-07-31T09:31:38;3.05;;;2.42;;
60344;SDS011;46188;52.324;8.032;2023-07-31T09:34:07;4.20;;;3.22;;
60344;SDS011;46188;52.324;8.032;2023-07-31T09:36:39;3.92;;;2.60;;
60344;SDS011;46188;52.324;8.032;2023-07-31T09:39:12;3.17;;;2.67;;
60344;SDS011;46188;52.324;8.032;2023-07-31T09:41:43;4.38;;;3.00;;
60344;SDS011;46188;52.324;8.032;2023-07-31T09:44:11;3.47;;;2.75;;
60344;SDS011;46188;52.324;8.032;2023-07-31T09:46:37;3.55;;;3.25;;
60344;SDS011;46188;52.324;8.032;2023-07-31T09:49:09;3.90;;;3.13;;
60344;SDS011;46188;52.324;8.032;2023-07-31T09:51:36;3.85;;;2.83;;
60344;SDS011;46188;52.324;8.032;2023-07-31T09:54:11;5.00;;;3.42;;
60344;SDS011;46188;52.324;8.032;2023-07-31T09:56:41;3.58;;;2.67;;
60344;SDS011;46188;52.324;8.032;2023-07-31T09:59:16;3.50;;;2.60;;
60344;SDS011;46188;52.324;8.032;2023-07-31T10:01:43;5.78;;;3.10;;
60344;SDS011;46188;52.324;8.032;2023-07-31T10:04:11;7.93;;;2.97;;
60344;SDS011;46188;52.324;8.032;2023-07-31T10:06:38;3.97;;;3.10;;
60344;SDS011;46188;52.324;8.032;2023-07-31T10:09:05;4.10;;;3.38;;
60344;SDS011;46188;52.324;8.032;2023-07-31T10:11:38;5.22;;;3.88;;
60344;SDS011;46188;52.324;8.032;2023-07-31T10:14:07;3.80;;;3.40;;
60344;SDS011;46188;52.324;8.032;2023-07-31T10:16:32;4.05;;;3.08;;
60344;SDS011;46188;52.324;8.032;2023-07-31T10:18:59;7.88;;;4.28;;
60344;SDS011;46188;52.324;8.032;2023-07-31T10:21:25;5.32;;;2.75;;
60344;SDS011;46188;52.324;8.032;2023-07-31T10:23:51;4.20;;;2.60;;
60344;SDS011;46188;52.324;8.032;2023-07-31T10:26:17;4.50;;;2.17;;
60344;SDS011;46188;52.324;8.032;2023-07-31T10:28:44;2.97;;;2.00;;
60344;SDS011;46188;52.324;8.032;2023-07-31T10:31:11;5.22;;;2.22;;
60344;SDS011;46188;52.324;8.032;2023-07-31T10:33:38;2.50;;;2.17;;
60344;SDS011;46188;52.324;8.032;2023-07-31T10:36:15;8.30;;;2.80;;
60344;SDS011;46188;52.324;8.032;2023-07-31T10:38:46;2.75;;;2.05;;
60344;SDS011;46188;52.324;8.032;2023-07-31T10:41:13;3.15;;;2.70;;
60344;SDS011;46188;52.324;8.032;2023-07-31T10:43:39;4.05;;;2.90;;
60344;SDS011;46188;52.324;8.032;2023-07-31T10:46:08;4.18;;;3.30;;
60344;SDS011;46188;52.324;8.032;2023-07-31T10:48:36;4.53;;;3.78;;
60344;SDS011;46188;52.324;8.032;2023-07-31T10:51:06;4.25;;;3.67;;
60344;SDS011;46188;52.324;8.032;2023-07-31T10:53:35;4.88;;;3.85;;
60344;SDS011;46188;52.324;8.032;2023-07-31T10:56:01;4.20;;;3.58;;
60344;SDS011;46188;52.324;8.032;2023-07-31T10:58:29;5.18;;;3.03;;
60344;SDS011;46188;52.324;8.032;2023-07-31T11:00:57;4.25;;;3.00;;
60344;SDS011;46188;52.324;8.032;2023-07-31T11:03:25;4.07;;;3.50;;
60344;SDS011;46188;52.324;8.032;2023-07-31T11:08:23;3.92;;;2.85;;
60344;SDS011;46188;52.324;8.032;2023-07-31T11:11:11;4.05;;;3.35;;
60344;SDS011;46188;52.324;8.032;2023-07-31T11:13:41;3.22;;;2.72;;
60344;SDS011;46188;52.324;8.032;2023-07-31T11:16:08;3.80;;;3.10;;
60344;SDS011;46188;52.324;8.032;2023-07-31T11:18:34;3.38;;;2.83;;
60344;SDS011;46188;52.324;8.032;2023-07-31T11:21:00;4.93;;;3.50;;
60344;SDS011;46188;52.324;8.032;2023-07-31T11:23:25;4.57;;;3.22;;
60344;SDS011;46188;52.324;8.032;2023-07-31T11:25:50;3.55;;;3.25;;
60344;SDS011;46188;52.324;8.032;2023-07-31T11:28:17;4.40;;;3.45;;
60344;SDS011;46188;52.324;8.032;2023-07-31T11:30:44;4.45;;;3.20;;
60344;SDS011;46188;52.324;8.032;2023-07-31T11:33:11;4.90;;;3.22;;
60344;SDS011;46188;52.324;8.032;2023-07-31T11:35:41;5.70;;;3.25;;
60344;SDS011;46188;52.324;8.032;2023-07-31T11:38:09;4.40;;;3.50;;
60344;SDS011;46188;52.324;8.032;2023-07-31T11:40:42;3.65;;;3.17;;
60344;SDS011;46188;52.324;8.032;2023-07-31T11:43:08;5.15;;;3.05;;
60344;SDS011;46188;52.324;8.032;2023-07-31T11:45:33;3.58;;;3.20;;
60344;SDS011;46188;52.324;8.032;2023-07-31T11:48:00;6.05;;;2.95;;
60344;SDS011;46188;52.324;8.032;2023-07-31T11:50:26;4.28;;;2.95;;
60344;SDS011;46188;52.324;8.032;2023-07-31T11:52:57;5.70;;;3.45;;
60344;SDS011;46188;52.324;8.032;2023-07-31T11:55:25;3.45;;;3.15;;
60344;SDS011;46188;52.324;8.032;2023-07-31T11:57:51;4.00;;;2.92;;
60344;SDS011;46188;52.324;8.032;2023-07-31T12:00:19;4.72;;;3.10;;
60344;SDS011;46188;52.324;8.032;2023-07-31T12:02:45;2.70;;;2.33;;
60344;SDS011;46188;52.324;8.032;2023-07-31T12:05:13;5.72;;;2.90;;
60344;SDS011;46188;52.324;8.032;2023-07-31T12:07:49;2.90;;;2.53;;
60344;SDS011;46188;52.324;8.032;2023-07-31T12:10:29;3.42;;;2.90;;
60344;SDS011;46188;52.324;8.032;2023-07-31T12:12:58;3.65;;;3.20;;
60344;SDS011;46188;52.324;8.032;2023-07-31T12:15:29;3.58;;;2.95;;
60344;SDS011;46188;52.324;8.032;2023-07-31T12:17:58;3.95;;;3.35;;
60344;SDS011;46188;52.324;8.032;2023-07-31T12:20:23;4.25;;;3.28;;
60344;SDS011;46188;52.324;8.032;2023-07-31T12:22:49;4.78;;;2.97;;
60344;SDS011;46188;52.324;8.032;2023-07-31T12:25:17;3.65;;;2.55;;
60344;SDS011;46188;52.324;8.032;2023-07-31T12:27:45;4.57;;;3.38;;
60344;SDS011;46188;52.324;8.032;2023-07-31T12:30:26;4.05;;;3.10;;
60344;SDS011;46188;52.324;8.032;2023-07-31T12:32:56;5.50;;;3.20;;
60344;SDS011;46188;52.324;8.032;2023-07-31T12:35:21;3.70;;;2.72;;
60344;SDS011;46188;52.324;8.032;2023-07-31T12:37:47;3.85;;;2.63;;
60344;SDS011;46188;52.324;8.032;2023-07-31T12:40:12;3.58;;;2.67;;
60344;SDS011;46188;52.324;8.032;2023-07-31T12:42:37;5.65;;;2.80;;
60344;SDS011;46188;52.324;8.032;2023-07-31T12:45:03;6.78;;;3.15;;
60344;SDS011;46188;52.324;8.032;2023-07-31T12:47:28;4.10;;;3.08;;
60344;SDS011;46188;52.324;8.032;2023-07-31T12:49:54;6.50;;;3.30;;
60344;SDS011;46188;52.324;8.032;2023-07-31T12:52:19;4.47;;;3.10;;
60344;SDS011;46188;52.324;8.032;2023-07-31T12:54:44;4.40;;;2.88;;
60344;SDS011;46188;52.324;8.032;2023-07-31T12:57:10;3.60;;;2.75;;
60344;SDS011;46188;52.324;8.032;2023-07-31T12:59:35;4.60;;;3.67;;
60344;SDS011;46188;52.324;8.032;2023-07-31T13:02:00;4.72;;;3.50;;
60344;SDS011;46188;52.324;8.032;2023-07-31T13:04:25;4.53;;;3.75;;
60344;SDS011;46188;52.324;8.032;2023-07-31T13:06:50;4.97;;;3.50;;
60344;SDS011;46188;52.324;8.032;2023-07-31T13:09:16;6.15;;;4.18;;
60344;SDS011;46188;52.324;8.032;2023-07-31T13:11:42;7.22;;;4.05;;
60344;SDS011;46188;52.324;8.032;2023-07-31T13:14:08;6.45;;;4.22;;
60344;SDS011;46188;52.324;8.032;2023-07-31T13:16:33;5.10;;;3.95;;
60344;SDS011;46188;52.324;8.032;2023-07-31T13:18:58;4.53;;;4.13;;
60344;SDS011;46188;52.324;8.032;2023-07-31T13:21:23;7.00;;;4.67;;
60344;SDS011;46188;52.324;8.032;2023-07-31T13:23:49;6.30;;;4.38;;
60344;SDS011;46188;52.324;8.032;2023-07-31T13:26:14;4.77;;;4.17;;
60344;SDS011;46188;52.324;8.032;2023-07-31T13:28:39;7.47;;;4.90;;
60344;SDS011;46188;52.324;8.032;2023-07-31T13:31:04;6.13;;;4.67;;
60344;SDS011;46188;52.324;8.032;2023-07-31T13:33:30;6.22;;;4.50;;
60344;SDS011;46188;52.324;8.032;2023-07-31T13:35:55;6.45;;;4.45;;
60344;SDS011;46188;52.324;8.032;2023-07-31T13:38:20;5.68;;;4.07;;
60344;SDS011;46188;52.324;8.032;2023-07-31T13:40:45;6.82;;;4.43;;
60344;SDS011;46188;52.324;8.032;2023-07-31T13:43:11;7.85;;;4.05;;
60344;SDS011;46188;52.324;8.032;2023-07-31T13:45:36;6.53;;;4.50;;
60344;SDS011;46188;52.324;8.032;2023-07-31T13:48:01;4.80;;;3.87;;
60344;SDS011;46188;52.324;8.032;2023-07-31T13:50:27;8.43;;;4.38;;
60344;SDS011;46188;52.324;8.032;2023-07-31T13:52:52;7.72;;;4.43;;
60344;SDS011;46188;52.324;8.032;2023-07-31T13:55:17;8.50;;;4.30;;
60344;SDS011;46188;52.324;8.032;2023-07-31T13:57:42;7.55;;;3.72;;
60344;SDS011;46188;52.324;8.032;2023-07-31T14:00:08;8.30;;;3.67;;
60344;SDS011;46188;52.324;8.032;2023-07-31T14:02:33;6.30;;;3.72;;
60344;SDS011;46188;52.324;8.032;2023-07-31T14:04:59;4.13;;;3.43;;
60344;SDS011;46188;52.324;8.032;2023-07-31T14:07:24;5.88;;;3.65;;
60344;SDS011;46188;52.324;8.032;2023-07-31T14:09:49;5.57;;;3.75;;
60344;SDS011;46188;52.324;8.032;2023-07-31T14:12:15;4.82;;;3.20;;
60344;SDS011;46188;52.324;8.032;2023-07-31T14:14:40;4.78;;;3.55;;
60344;SDS011;46188;52.324;8.032;2023-07-31T14:17:05;5.80;;;3.85;;
60344;SDS011;46188;52.324;8.032;2023-07-31T14:19:30;6.05;;;3.90;;
60344;SDS011;46188;52.324;8.032;2023-07-31T14:21:58;5.50;;;3.92;;
60344;SDS011;46188;52.324;8.032;2023-07-31T14:24:24;7.22;;;4.50;;
60344;SDS011;46188;52.324;8.032;2023-07-31T14:26:49;5.38;;;3.92;;
60344;SDS011;46188;52.324;8.032;2023-07-31T14:29:14;6.15;;;3.97;;
60344;SDS011;46188;52.324;8.032;2023-07-31T14:31:39;4.18;;;3.63;;
60344;SDS011;46188;52.324;8.032;2023-07-31T14:34:05;4.38;;;3.42;;
60344;SDS011;46188;52.324;8.032;2023-07-31T14:36:30;6.15;;;3.50;;
60344;SDS011;46188;52.324;8.032;2023-07-31T14:38:55;5.70;;;3.60;;
60344;SDS011;46188;52.324;8.032;2023-07-31T14:41:21;5.93;;;3.53;;
60344;SDS011;46188;52.324;8.032;2023-07-31T14:43:46;4.88;;;3.38;;
60344;SDS011;46188;52.324;8.032;2023-07-31T14:46:11;4.50;;;3.47;;
60344;SDS011;46188;52.324;8.032;2023-07-31T14:48:36;8.07;;;3.40;;